createdAt,value
2023-02-12T00:00:52.050Z,9.20
2023-02-12T00:03:41.063Z,9.30
2023-02-12T00:06:30.682Z,9.50
2023-02-12T00:09:19.490Z,9.40
2023-02-12T00:12:08.524Z,9.70
2023-02-12T00:14:57.508Z,9.90
2023-02-12T00:17:46.614Z,9.80
2023-02-12T00:20:39.020Z,9.00
2023-02-12T00:23:28.562Z,9.40
2023-02-12T00:26:18.544Z,10.10
2023-02-12T00:29:10.462Z,9.90
2023-02-12T00:31:59.359Z,10.60
2023-02-12T00:34:49.125Z,10.00
2023-02-12T00:37:38.097Z,11.60
2023-02-12T00:40:26.796Z,11.20
2023-02-12T00:43:15.458Z,11.60
2023-02-12T00:46:05.425Z,10.20
2023-02-12T00:48:55.494Z,12.20
2023-02-12T00:51:44.230Z,10.70
2023-02-12T00:54:33.761Z,10.50
2023-02-12T00:57:22.549Z,10.30
2023-02-12T01:00:22.501Z,10.50
2023-02-12T01:03:11.500Z,10.50
2023-02-12T01:06:00.337Z,9.00
2023-02-12T01:08:51.838Z,10.40
2023-02-12T01:11:40.647Z,9.80
2023-02-12T01:14:31.315Z,10.20
2023-02-12T01:17:20.458Z,9.40
2023-02-12T01:20:13.357Z,10.70
2023-02-12T01:23:02.344Z,10.70
2023-02-12T01:25:51.020Z,10.40
2023-02-12T01:28:40.970Z,10.70
2023-02-12T01:31:32.862Z,11.00
2023-02-12T01:34:21.691Z,9.60
2023-02-12T01:37:10.345Z,11.20
2023-02-12T01:39:59.117Z,10.90
2023-02-12T01:42:47.882Z,10.80
2023-02-12T01:45:37.660Z,10.20
2023-02-12T01:48:27.385Z,10.70
2023-02-12T01:51:18.162Z,10.60
2023-02-12T01:54:07.903Z,10.80
2023-02-12T01:56:56.570Z,11.50
2023-02-12T01:59:46.064Z,10.20
2023-02-12T02:02:35.207Z,10.60
2023-02-12T02:05:55.008Z,10.60
2023-02-12T02:08:44.696Z,10.30
2023-02-12T02:11:52.288Z,10.40
2023-02-12T02:14:41.172Z,10.90
2023-02-12T02:17:59.346Z,10.60
2023-02-12T02:21:10.401Z,11.20
2023-02-12T02:24:10.869Z,10.40
2023-02-12T02:27:43.583Z,9.80
2023-02-12T02:30:59.693Z,10.90
2023-02-12T02:33:54.360Z,9.90
2023-02-12T02:36:59.774Z,9.40
2023-02-12T02:39:54.422Z,8.70
2023-02-12T02:42:57.552Z,10.40
2023-02-12T02:45:48.291Z,10.50
2023-02-12T02:48:40.090Z,10.50
2023-02-12T02:51:41.388Z,11.30
2023-02-12T02:54:42.174Z,10.00
2023-02-12T02:57:42.764Z,9.10
2023-02-12T03:00:35.912Z,9.00
2023-02-12T03:03:33.602Z,9.00
2023-02-12T03:06:38.704Z,8.70
2023-02-12T03:09:32.486Z,11.80
2023-02-12T03:12:32.854Z,9.20
2023-02-12T03:15:27.272Z,8.40
2023-02-12T03:18:25.765Z,8.60
2023-02-12T03:21:17.195Z,8.10
2023-02-12T03:24:33.002Z,6.50
2023-02-12T03:27:26.908Z,7.10
2023-02-12T03:30:15.991Z,6.70
2023-02-12T03:33:21.290Z,5.50
2023-02-12T03:36:36.221Z,5.90
2023-02-12T03:40:06.220Z,5.20
2023-02-12T03:43:09.991Z,5.90
2023-02-12T03:46:15.328Z,4.80
2023-02-12T03:49:17.623Z,4.90
2023-02-12T03:52:06.719Z,4.90
2023-02-12T03:54:59.521Z,4.90
2023-02-12T03:57:52.190Z,4.70
2023-02-12T04:00:40.995Z,5.00
2023-02-12T04:03:30.400Z,4.80
2023-02-12T04:06:26.866Z,4.90
2023-02-12T04:09:15.912Z,4.30
2023-02-12T04:12:19.912Z,4.00
2023-02-12T04:15:12.433Z,4.00
2023-02-12T04:21:31.628Z,4.00
2023-02-12T04:24:36.792Z,2.40
2023-02-12T04:28:19.896Z,3.10
2023-02-12T04:31:17.270Z,2.50
2023-02-12T04:34:48.697Z,1.90
2023-02-12T04:37:44.294Z,1.90
2023-02-12T04:40:32.963Z,1.70
2023-02-12T04:43:29.332Z,1.30
2023-02-12T04:46:18.244Z,1.60
2023-02-12T04:49:07.024Z,1.60
2023-02-12T04:51:55.836Z,1.30
2023-02-12T04:54:45.051Z,1.20
2023-02-12T04:57:33.770Z,1.40
2023-02-12T05:00:22.601Z,1.30
2023-02-12T05:03:12.387Z,2.90
2023-02-12T05:06:08.262Z,1.10
2023-02-12T05:08:57.261Z,1.00
2023-02-12T05:11:46.067Z,1.10
2023-02-12T05:14:35.905Z,1.10
2023-02-12T05:17:25.000Z,0.70
2023-02-12T05:20:14.538Z,0.90
2023-02-12T05:23:03.291Z,0.70
2023-02-12T05:25:52.475Z,0.70
2023-02-12T05:28:41.330Z,0.90
2023-02-12T05:31:30.242Z,0.80
2023-02-12T05:34:20.372Z,1.00
2023-02-12T05:37:09.468Z,1.90
2023-02-12T05:39:58.111Z,0.80
2023-02-12T05:42:46.706Z,1.10
2023-02-12T05:45:38.056Z,0.80
2023-02-12T05:48:27.136Z,0.80
2023-02-12T05:51:21.914Z,1.30
2023-02-12T05:54:11.012Z,1.10
2023-02-12T05:56:59.732Z,1.30
2023-02-12T05:59:48.398Z,0.90
2023-02-12T06:02:37.822Z,0.70
2023-02-12T06:05:26.589Z,0.60
2023-02-12T06:08:15.459Z,0.40
2023-02-12T06:11:08.913Z,1.90
2023-02-12T06:13:57.951Z,1.40
2023-02-12T06:16:53.169Z,0.70
2023-02-12T06:19:42.276Z,0.90
2023-02-12T06:22:31.194Z,1.30
2023-02-12T06:25:21.891Z,1.20
2023-02-12T06:28:10.718Z,0.90
2023-02-12T06:30:59.513Z,1.10
2023-02-12T06:33:48.284Z,0.80
2023-02-12T06:36:38.499Z,0.60
2023-02-12T06:39:27.288Z,0.60
2023-02-12T06:42:16.020Z,0.80
2023-02-12T06:45:05.200Z,0.70
2023-02-12T06:47:54.880Z,0.90
2023-02-12T06:50:43.632Z,0.50
2023-02-12T06:53:33.820Z,0.80
2023-02-12T06:56:23.787Z,0.70
2023-02-12T06:59:16.246Z,0.60
2023-02-12T07:02:05.208Z,1.00
2023-02-12T07:04:54.004Z,0.80
2023-02-12T07:07:44.463Z,0.90
2023-02-12T07:10:33.365Z,1.60
2023-02-12T07:13:22.091Z,0.80
2023-02-12T07:16:15.054Z,1.30
2023-02-12T07:19:06.039Z,1.00
2023-02-12T07:21:55.104Z,1.60
2023-02-12T07:24:43.867Z,1.20
2023-02-12T07:27:37.389Z,0.70
2023-02-12T07:30:26.140Z,0.80
2023-02-12T07:33:14.968Z,0.90
2023-02-12T07:36:04.770Z,1.50
2023-02-12T07:38:54.432Z,0.80
2023-02-12T07:41:43.525Z,0.60
2023-02-12T07:44:34.390Z,0.90
2023-02-12T07:47:23.137Z,1.70
2023-02-12T07:50:12.059Z,1.60
2023-02-12T07:53:01.387Z,1.10
2023-02-12T07:55:50.423Z,0.50
2023-02-12T07:58:40.525Z,0.70
2023-02-12T08:01:38.961Z,1.20
2023-02-12T08:04:28.104Z,0.60
2023-02-12T08:07:17.347Z,1.60
2023-02-12T08:10:09.576Z,1.20
2023-02-12T08:13:04.312Z,1.20
2023-02-12T08:16:01.695Z,1.30
2023-02-12T08:18:51.883Z,0.90
2023-02-12T08:21:40.714Z,1.30
2023-02-12T08:24:30.161Z,0.80
2023-02-12T08:27:20.590Z,1.00
2023-02-12T08:30:10.348Z,2.30
2023-02-12T08:32:59.770Z,1.70
2023-02-12T08:35:52.277Z,1.30
2023-02-12T08:38:41.644Z,0.80
2023-02-12T08:41:30.641Z,0.80
2023-02-12T08:44:19.783Z,1.00
2023-02-12T08:47:10.230Z,0.80
2023-02-12T08:49:59.046Z,1.10
2023-02-12T08:52:47.959Z,1.20
2023-02-12T08:55:39.218Z,1.40
2023-02-12T08:58:30.473Z,1.00
2023-02-12T09:01:22.601Z,1.10
2023-02-12T09:04:23.079Z,1.00
2023-02-12T09:07:13.218Z,0.80
2023-02-12T09:10:05.377Z,0.80
2023-02-12T09:12:54.249Z,0.90
2023-02-12T09:15:45.018Z,1.10
2023-02-12T09:18:36.819Z,1.40
2023-02-12T09:21:25.958Z,0.90
2023-02-12T09:24:14.805Z,0.90
2023-02-12T09:27:06.688Z,1.30
2023-02-12T09:29:55.710Z,1.40
2023-02-12T09:32:44.948Z,0.90
2023-02-12T09:35:36.077Z,1.20
2023-02-12T09:38:24.959Z,1.20
2023-02-12T09:41:24.879Z,0.70
2023-02-12T09:44:26.118Z,1.90
2023-02-12T09:47:34.854Z,1.10
2023-02-12T09:50:33.834Z,0.80
2023-02-12T09:53:25.972Z,1.10
2023-02-12T09:56:18.614Z,1.10
2023-02-12T09:59:08.297Z,0.80
2023-02-12T10:01:58.588Z,0.80
2023-02-12T10:05:00.593Z,0.80
2023-02-12T10:08:14.364Z,1.10
2023-02-12T10:11:42.281Z,0.90
2023-02-12T10:15:02.392Z,1.70
2023-02-12T10:18:15.039Z,1.00
2023-02-12T10:21:12.287Z,0.80
2023-02-12T10:24:12.383Z,0.70
2023-02-12T10:27:03.849Z,0.70
2023-02-12T10:29:53.009Z,0.90
2023-02-12T10:32:42.065Z,1.10
2023-02-12T10:35:31.270Z,1.20
2023-02-12T10:38:22.599Z,0.80
2023-02-12T10:41:11.639Z,1.00
2023-02-12T10:44:02.864Z,1.50
2023-02-12T10:46:57.964Z,1.20
2023-02-12T10:49:53.111Z,0.80
2023-02-12T10:52:45.549Z,1.40
2023-02-12T10:55:36.893Z,1.00
2023-02-12T10:58:26.163Z,1.80
2023-02-12T11:01:20.726Z,1.20
2023-02-12T11:04:33.765Z,1.70
2023-02-12T11:07:22.902Z,0.90
2023-02-12T11:10:21.143Z,0.70
2023-02-12T11:13:30.278Z,1.10
2023-02-12T11:16:30.878Z,1.20
2023-02-12T11:19:24.722Z,1.30
2023-02-12T11:22:19.355Z,1.70
2023-02-12T11:25:15.985Z,1.50
2023-02-12T11:28:19.365Z,0.90
2023-02-12T11:31:14.355Z,0.90
2023-02-12T11:34:14.411Z,1.00
2023-02-12T11:37:03.639Z,1.20
2023-02-12T11:39:52.484Z,1.00
2023-02-12T11:42:43.486Z,1.10
2023-02-12T11:45:52.987Z,0.50
2023-02-12T11:48:42.195Z,1.20
2023-02-12T11:51:32.488Z,0.60
2023-02-12T11:54:26.926Z,1.00
2023-02-12T11:57:41.059Z,0.70
2023-02-12T12:01:06.427Z,0.90
2023-02-12T12:04:00.126Z,0.60
2023-02-12T12:06:58.318Z,1.10
2023-02-12T12:10:01.999Z,1.00
2023-02-12T12:12:57.491Z,0.60
2023-02-12T12:16:09.758Z,1.10
2023-02-12T12:19:24.347Z,0.90
2023-02-12T12:22:19.202Z,0.90
2023-02-12T12:25:21.062Z,1.20
2023-02-12T12:28:23.477Z,0.80
2023-02-12T12:31:12.262Z,1.20
2023-02-12T12:34:11.122Z,1.10
2023-02-12T12:37:12.756Z,1.20
2023-02-12T12:40:22.163Z,1.00
2023-02-12T12:43:19.371Z,0.80
2023-02-12T12:46:38.004Z,1.10
2023-02-12T12:49:45.573Z,1.00
2023-02-12T12:53:02.136Z,0.80
2023-02-12T12:56:09.046Z,0.90
2023-02-12T12:59:35.743Z,0.70
2023-02-12T13:02:57.969Z,0.90
2023-02-12T13:05:57.556Z,0.70
2023-02-12T13:09:12.950Z,0.60
2023-02-12T13:12:07.907Z,0.90
2023-02-12T13:15:00.751Z,0.50
2023-02-12T13:18:13.274Z,1.10
2023-02-12T13:21:14.050Z,0.50
2023-02-12T13:26:58.809Z,0.40
2023-02-12T13:30:23.207Z,0.60
2023-02-12T13:33:15.237Z,0.90
2023-02-12T13:36:06.360Z,0.80
2023-02-12T13:39:10.795Z,1.80
2023-02-12T13:42:38.315Z,1.00
2023-02-12T13:45:50.799Z,1.10
2023-02-12T13:48:55.756Z,0.70
2023-02-12T13:51:49.821Z,0.70
2023-02-12T13:55:12.640Z,0.80
2023-02-12T13:58:33.044Z,0.70
2023-02-12T14:01:39.654Z,0.80
2023-02-12T14:05:00.054Z,0.80
2023-02-12T14:07:52.086Z,0.70
2023-02-12T14:10:42.373Z,0.50
2023-02-12T14:13:34.364Z,1.80
2023-02-12T14:16:29.770Z,0.80
2023-02-12T14:19:38.207Z,0.60
2023-02-12T14:22:27.621Z,0.50
2023-02-12T14:25:25.800Z,0.60
2023-02-12T14:28:51.352Z,0.60
2023-02-12T14:31:44.701Z,0.60
2023-02-12T14:34:34.857Z,0.60
2023-02-12T14:37:35.967Z,1.00
2023-02-12T14:40:36.558Z,1.20
2023-02-12T14:44:12.554Z,0.70
2023-02-12T14:47:14.703Z,0.50
2023-02-12T14:50:15.185Z,0.70
2023-02-12T14:53:21.286Z,2.20
2023-02-12T14:56:14.941Z,6.30
2023-02-12T14:59:05.082Z,0.80
2023-02-12T15:01:54.800Z,2.20
2023-02-12T15:04:43.877Z,2.10
2023-02-12T15:08:05.069Z,0.90
2023-02-12T15:11:15.401Z,1.00
2023-02-12T15:14:20.704Z,1.00
2023-02-12T15:17:17.775Z,1.10
2023-02-12T15:20:31.658Z,0.90
2023-02-12T15:23:30.886Z,0.70
2023-02-12T15:26:20.878Z,1.00
2023-02-12T15:29:29.156Z,0.90
2023-02-12T15:32:22.168Z,0.90
2023-02-12T15:35:20.132Z,0.90
2023-02-12T15:38:09.621Z,0.80
2023-02-12T15:40:59.685Z,0.70
2023-02-12T15:43:48.434Z,1.90
2023-02-12T15:46:37.216Z,1.30
2023-02-12T15:49:36.872Z,0.80
2023-02-12T15:52:44.979Z,1.10
2023-02-12T15:55:36.344Z,1.80
2023-02-12T15:58:49.414Z,1.20
2023-02-12T16:01:40.794Z,0.70
2023-02-12T16:04:31.787Z,0.70
2023-02-12T16:07:22.359Z,0.80
2023-02-12T16:10:14.455Z,1.00
2023-02-12T16:13:03.861Z,0.90
2023-02-12T16:16:07.613Z,1.10
2023-02-12T16:19:18.554Z,0.70
2023-02-12T16:22:07.933Z,0.70
2023-02-12T16:24:56.745Z,0.70
2023-02-12T16:28:00.069Z,1.00
2023-02-12T16:30:51.286Z,0.80
2023-02-12T16:33:40.244Z,0.70
2023-02-12T16:36:30.732Z,0.90
2023-02-12T16:39:57.873Z,1.00
2023-02-12T16:42:47.895Z,0.90
2023-02-12T16:45:38.368Z,1.50
2023-02-12T16:48:28.198Z,1.20
2023-02-12T16:51:22.068Z,1.30
2023-02-12T16:54:34.229Z,1.00
2023-02-12T16:57:23.092Z,1.20
2023-02-12T17:00:15.783Z,1.30
2023-02-12T17:03:04.807Z,1.70
2023-02-12T17:05:53.911Z,1.40
2023-02-12T17:08:42.685Z,1.30
2023-02-12T17:11:31.487Z,1.40
2023-02-12T17:14:21.278Z,1.10
2023-02-12T17:17:10.113Z,1.20
2023-02-12T17:19:58.862Z,1.50
2023-02-12T17:22:52.162Z,1.10
2023-02-12T17:25:41.329Z,1.30
2023-02-12T17:28:30.943Z,1.30
2023-02-12T17:31:20.855Z,1.80
2023-02-12T17:34:09.578Z,1.00
2023-02-12T17:36:58.321Z,1.10
2023-02-12T17:39:46.975Z,1.30
2023-02-12T17:42:35.700Z,1.10
2023-02-12T17:45:24.967Z,1.10
2023-02-12T17:48:15.227Z,1.50
2023-02-12T17:51:05.230Z,1.20
2023-02-12T17:53:54.283Z,1.60
2023-02-12T17:56:43.416Z,1.00
2023-02-12T17:59:32.638Z,1.30
2023-02-12T18:02:23.643Z,1.10
2023-02-12T18:05:12.369Z,0.80
2023-02-12T18:08:03.666Z,1.10
2023-02-12T18:10:55.466Z,1.10
2023-02-12T18:13:44.925Z,1.20
2023-02-12T18:16:34.414Z,1.70
2023-02-12T18:19:25.622Z,2.10
2023-02-12T18:22:14.325Z,1.50
2023-02-12T18:25:04.091Z,1.70
2023-02-12T18:27:53.361Z,1.80
2023-02-12T18:30:43.842Z,1.40
2023-02-12T18:33:33.396Z,1.10
2023-02-12T18:36:22.808Z,1.10
2023-02-12T18:39:11.733Z,1.10
2023-02-12T18:42:00.625Z,1.30
2023-02-12T18:44:51.206Z,1.40
2023-02-12T18:47:39.837Z,1.50
2023-02-12T18:50:29.390Z,1.10
2023-02-12T18:53:18.317Z,1.40
2023-02-12T18:56:08.120Z,1.10
2023-02-12T18:58:58.653Z,1.20
2023-02-12T19:01:47.609Z,1.00
2023-02-12T19:04:37.070Z,1.10
2023-02-12T19:07:27.533Z,1.60
2023-02-12T19:10:16.505Z,1.00
2023-02-12T19:13:05.422Z,1.50
2023-02-12T19:15:54.252Z,1.40
2023-02-12T19:18:43.143Z,0.90
2023-02-12T19:21:34.205Z,1.10
2023-02-12T19:24:23.020Z,1.30
2023-02-12T19:27:11.648Z,1.00
2023-02-12T19:30:00.811Z,1.10
2023-02-12T19:32:49.467Z,2.90
2023-02-12T19:35:38.329Z,4.90
2023-02-12T19:38:28.115Z,1.50
2023-02-12T19:41:20.539Z,1.40
2023-02-12T19:46:59.705Z,1.30
2023-02-12T19:49:48.553Z,1.20
2023-02-12T19:52:38.903Z,0.90
2023-02-12T19:55:27.677Z,0.90
2023-02-12T19:58:18.693Z,1.20
2023-02-12T20:01:20.168Z,1.30
2023-02-12T20:04:12.445Z,0.80
2023-02-12T20:09:51.521Z,1.20
2023-02-12T20:12:41.495Z,1.30
2023-02-12T20:15:31.499Z,0.80
2023-02-12T20:18:20.187Z,1.20
2023-02-12T20:21:13.869Z,1.30
2023-02-12T20:24:03.013Z,1.20
2023-02-12T20:26:52.244Z,1.20
2023-02-12T20:29:41.120Z,1.30
2023-02-12T20:32:30.154Z,1.30
2023-02-12T20:35:19.089Z,1.10
2023-02-12T20:38:07.688Z,0.90
2023-02-12T20:41:00.247Z,1.70
2023-02-12T20:46:41.987Z,1.60
2023-02-12T20:49:30.815Z,1.10
2023-02-12T20:52:19.462Z,1.70
2023-02-12T20:55:09.601Z,1.30
2023-02-12T20:57:58.436Z,1.50
2023-02-12T21:00:48.132Z,1.10
2023-02-12T21:03:37.306Z,1.40
2023-02-12T21:06:26.103Z,1.80
2023-02-12T21:09:15.187Z,1.70
2023-02-12T21:12:05.353Z,1.30
2023-02-12T21:14:54.684Z,1.60
2023-02-12T21:17:47.655Z,1.50
2023-02-12T21:20:37.555Z,1.70
2023-02-12T21:23:26.852Z,1.90
2023-02-12T21:26:17.263Z,2.40
2023-02-12T21:29:06.926Z,1.90
2023-02-12T21:31:56.846Z,2.00
2023-02-12T21:34:46.994Z,1.80
2023-02-12T21:37:36.304Z,1.40
2023-02-12T21:40:25.781Z,1.60
2023-02-12T21:43:14.631Z,1.90
2023-02-12T21:46:03.497Z,2.20
2023-02-12T21:48:52.368Z,2.00
2023-02-12T21:51:44.622Z,1.40
2023-02-12T21:54:34.230Z,1.70
2023-02-12T21:57:23.401Z,1.30
2023-02-12T22:00:12.566Z,1.40
2023-02-12T22:03:01.452Z,1.40
2023-02-12T22:05:50.138Z,1.90
2023-02-12T22:08:38.898Z,1.60
2023-02-12T22:11:28.021Z,1.50
2023-02-12T22:14:17.107Z,1.20
2023-02-12T22:17:07.211Z,1.10
2023-02-12T22:19:55.906Z,0.70
2023-02-12T22:22:44.667Z,0.90
2023-02-12T22:25:33.513Z,0.80
2023-02-12T22:28:22.456Z,1.10
2023-02-12T22:31:12.034Z,1.10
2023-02-12T22:34:04.266Z,1.00
2023-02-12T22:36:53.010Z,0.90
2023-02-12T22:39:42.423Z,0.80
2023-02-12T22:42:31.757Z,2.60
2023-02-12T22:45:20.430Z,1.40
2023-02-12T22:48:09.967Z,0.70
2023-02-12T22:50:59.485Z,0.90
2023-02-12T22:53:48.957Z,1.00
2023-02-12T22:56:38.051Z,0.80
2023-02-12T22:59:26.874Z,1.00
2023-02-12T23:02:15.896Z,1.20
2023-02-12T23:05:04.784Z,0.70
2023-02-12T23:07:53.663Z,3.40
2023-02-12T23:10:42.544Z,1.30
2023-02-12T23:13:31.375Z,1.70
2023-02-12T23:16:20.878Z,1.00
2023-02-12T23:19:10.039Z,2.10
2023-02-12T23:21:59.058Z,1.80
2023-02-12T23:24:47.828Z,1.40
2023-02-12T23:27:37.048Z,1.90
2023-02-12T23:30:26.186Z,1.10
2023-02-12T23:33:15.663Z,1.40
2023-02-12T23:36:05.137Z,1.10
2023-02-12T23:38:53.836Z,1.50
2023-02-12T23:41:42.524Z,1.70
2023-02-12T23:44:31.533Z,1.40
2023-02-12T23:47:20.199Z,1.20
2023-02-12T23:50:09.647Z,1.50
2023-02-12T23:52:58.892Z,1.70
2023-02-12T23:55:49.523Z,1.40
2023-02-12T23:58:41.266Z,1.00
